Time;durP1;ratioP1;P1;durP2;ratioP2;P2;SDS_P1;SDS_P2;PMS_P1;PMS_P2;Temp;Humidity;BMP_temperature;BMP_pressure;BME280_temperature;BME280_humidity;BME280_pressure;Samples;Min_cycle;Max_cycle;Signal;HPM_P1;HPM_P2
2023/01/17 00:00:33;;;;;;;2.05;1.42;;;;;;;5.49;73.33;97054.81;6176954;23;20016;-83
2023/01/17 00:03:00;;;;;;;5.35;1.10;;;;;;;5.46;73.59;97069.13;6153362;23;20020;-83
2023/01/17 00:10:58;;;;;;;2.00;1.40;;;;;;;5.38;73.60;97048.13;6133960;23;20051;-83
2023/01/17 00:13:24;;;;;;;3.85;1.50;;;;;;;5.43;73.69;97051.88;6177577;23;20056;-83
2023/01/17 00:15:51;;;;;;;3.83;1.70;;;;;;;5.46;73.37;97055.16;6127517;23;20016;-83
2023/01/17 00:18:18;;;;;;;2.22;1.30;;;;;;;5.42;73.19;97060.78;6203101;23;20021;-83
2023/01/17 00:26:17;;;;;;;1.95;1.30;;;;;;;5.38;72.53;97069.97;6127739;23;20028;-83
2023/01/17 01:35:50;;;;;;;3.70;1.50;;;;;;;5.17;71.90;97204.72;6152217;23;20030;-83
2023/01/17 01:38:19;;;;;;;4.72;1.45;;;;;;;5.15;72.43;97187.47;6177239;23;20330;-83
2023/01/17 01:40:48;;;;;;;2.13;1.52;;;;;;;5.14;72.62;97193.69;6127106;23;20028;-84
2023/01/17 01:43:17;;;;;;;3.58;1.77;;;;;;;5.12;72.94;97185.16;6152061;23;20024;-83
2023/01/17 01:45:47;;;;;;;2.88;1.63;;;;;;;5.13;72.36;97198.13;6103605;23;20086;-83
2023/01/17 01:48:19;;;;;;;3.58;1.65;;;;;;;5.10;72.24;97198.47;6151744;23;20040;-83
2023/01/17 01:50:47;;;;;;;2.92;1.70;;;;;;;5.08;71.84;97204.88;6149942;23;20040;-83
2023/01/17 01:53:14;;;;;;;4.38;1.38;;;;;;;5.04;71.75;97204.41;6150913;23;20483;-84
2023/01/17 01:55:42;;;;;;;3.83;1.70;;;;;;;5.03;71.81;97208.00;6176401;23;20330;-83
2023/01/17 01:58:23;;;;;;;4.13;1.70;;;;;;;4.88;71.04;97215.72;6152020;23;20044;-84
2023/01/17 02:00:50;;;;;;;2.58;1.70;;;;;;;4.84;72.38;97216.25;6175472;23;20024;-84
2023/01/17 02:03:21;;;;;;;3.60;1.40;;;;;;;4.80;72.17;97210.47;6152390;23;20457;-83
2023/01/17 02:05:47;;;;;;;6.00;1.77;;;;;;;4.80;72.81;97205.22;6103768;23;20024;-83
2023/01/17 02:08:16;;;;;;;5.82;1.90;;;;;;;4.82;72.25;97205.06;6176473;23;20024;-84
2023/01/17 02:10:43;;;;;;;6.63;1.85;;;;;;;4.76;71.94;97196.03;6152454;23;20029;-83
2023/01/17 02:13:11;;;;;;;4.55;1.95;;;;;;;4.90;71.67;97203.25;6126307;23;20036;-84
2023/01/17 02:16:16;;;;;;;4.90;1.90;;;;;;;4.80;70.74;97197.34;6153653;23;20019;-83
2023/01/17 02:18:52;;;;;;;5.60;1.75;;;;;;;4.83;71.02;97207.50;6114074;23;20024;-83
2023/01/17 02:21:30;;;;;;;3.78;1.60;;;;;;;4.83;71.78;97202.25;6128400;23;20024;-83
2023/01/17 02:24:16;;;;;;;2.30;1.65;;;;;;;4.80;70.76;97207.84;6103744;23;20024;-83
2023/01/17 02:26:57;;;;;;;2.20;1.73;;;;;;;4.71;70.85;97209.66;6170821;23;20485;-83
2023/01/17 02:29:45;;;;;;;2.90;1.80;;;;;;;4.83;71.31;97207.50;6175640;23;20020;-83
2023/01/17 02:32:39;;;;;;;5.53;1.83;;;;;;;4.63;71.75;97200.94;6130554;23;20028;-83
2023/01/17 02:35:27;;;;;;;3.30;1.65;;;;;;;4.56;72.53;97206.03;6154063;23;20016;-83
2023/01/17 02:38:24;;;;;;;5.65;1.88;;;;;;;4.60;71.85;97207.34;6147143;23;20051;-84
2023/01/17 02:41:06;;;;;;;3.72;2.00;;;;;;;4.53;72.45;97204.56;6178322;23;20021;-83
2023/01/17 02:43:34;;;;;;;1.70;1.58;;;;;;;4.63;72.87;97208.81;6148126;23;20016;-82
2023/01/17 02:46:01;;;;;;;2.95;1.60;;;;;;;4.61;72.94;97200.31;6177694;23;20453;-83
2023/01/17 02:48:30;;;;;;;4.07;1.58;;;;;;;4.67;71.55;97197.00;6173849;23;20694;-83
2023/01/17 02:51:09;;;;;;;3.78;1.85;;;;;;;4.57;71.80;97197.97;6177064;23;20031;-83
2023/01/17 02:53:59;;;;;;;4.25;2.00;;;;;;;4.60;71.91;97202.09;6149345;23;20406;-84
2023/01/17 02:57:09;;;;;;;4.57;1.52;;;;;;;4.43;73.24;97203.06;6105631;23;20028;-83
2023/01/17 02:59:44;;;;;;;3.22;1.80;;;;;;;4.53;73.10;97220.31;6104912;23;20051;-85
2023/01/17 03:02:37;;;;;;;4.22;1.48;;;;;;;4.57;72.93;97219.00;6151047;23;20032;-83
2023/01/17 03:05:21;;;;;;;5.97;2.03;;;;;;;4.61;72.73;97221.31;6220944;23;20039;-83
2023/01/17 03:07:49;;;;;;;3.60;1.83;;;;;;;4.65;73.17;97226.06;6172986;23;20055;-83
2023/01/17 03:10:17;;;;;;;5.57;1.50;;;;;;;4.72;72.39;97228.88;6151236;23;20460;-83
2023/01/17 03:12:44;;;;;;;2.85;1.63;;;;;;;4.62;73.28;97223.78;6151820;23;20095;-83
2023/01/17 03:15:16;;;;;;;3.30;2.13;;;;;;;4.63;73.07;97225.44;6175109;23;20021;-83
2023/01/17 03:17:48;;;;;;;6.30;2.10;;;;;;;4.67;73.08;97223.28;6150409;23;20419;-83
2023/01/17 03:20:15;;;;;;;3.17;1.67;;;;;;;4.68;73.64;97227.56;6151310;23;20027;-83
2023/01/17 03:22:42;;;;;;;4.90;2.28;;;;;;;4.70;73.58;97222.97;6151678;23;20029;-83
2023/01/17 03:25:09;;;;;;;4.25;2.10;;;;;;;4.73;73.39;97228.72;6175956;23;20024;-83
2023/01/17 03:27:36;;;;;;;5.28;1.77;;;;;;;4.74;73.61;97235.63;6151573;23;20021;-83
2023/01/17 03:30:03;;;;;;;8.35;2.13;;;;;;;4.79;72.60;97243.84;6176498;23;20073;-84
2023/01/17 03:32:30;;;;;;;5.13;2.83;;;;;;;4.76;73.47;97235.47;6151695;23;20025;-84
2023/01/17 03:34:57;;;;;;;2.88;2.10;;;;;;;4.77;74.01;97232.66;6150067;23;20021;-83
2023/01/17 03:37:23;;;;;;;4.25;2.10;;;;;;;4.82;74.02;97239.25;6150482;23;20551;-83
2023/01/17 03:39:50;;;;;;;5.85;2.17;;;;;;;4.82;74.32;97249.75;6152539;23;20028;-82
2023/01/17 03:42:17;;;;;;;2.97;2.08;;;;;;;4.82;74.72;97249.75;6177027;23;20598;-83
2023/01/17 03:44:43;;;;;;;5.07;1.88;;;;;;;4.81;74.85;97242.84;6175010;23;20118;-83
2023/01/17 03:47:10;;;;;;;3.63;2.17;;;;;;;4.78;75.15;97250.09;6151043;23;20437;-83
2023/01/17 03:49:38;;;;;;;6.38;2.40;;;;;;;4.82;74.69;97242.69;6151666;23;20031;-83
2023/01/17 03:52:05;;;;;;;4.05;2.00;;;;;;;4.82;75.06;97237.44;6150559;23;20348;-83
2023/01/17 03:54:32;;;;;;;3.38;2.00;;;;;;;4.82;74.59;97245.31;6126909;23;20024;-83
2023/01/17 03:56:59;;;;;;;12.50;2.05;;;;;;;4.84;74.49;97246.00;6153238;23;20016;-83
2023/01/17 03:59:26;;;;;;;4.05;2.17;;;;;;;4.86;74.24;97257.16;6153955;23;20059;-83
2023/01/17 04:01:53;;;;;;;4.68;2.15;;;;;;;4.81;74.12;97263.88;6129017;23;20016;-83
2023/01/17 04:04:19;;;;;;;3.50;1.48;;;;;;;4.71;73.55;97282.44;6177529;23;20028;-83
2023/01/17 04:06:46;;;;;;;3.22;1.50;;;;;;;4.64;74.08;97270.94;6177444;23;20103;-84
2023/01/17 04:09:13;;;;;;;2.78;1.38;;;;;;;4.52;74.93;97273.84;6129550;23;20013;-83
2023/01/17 04:11:40;;;;;;;2.70;1.58;;;;;;;4.45;75.59;97259.72;6177718;23;20100;-84
2023/01/17 04:14:07;;;;;;;2.50;1.48;;;;;;;4.42;76.16;97264.47;6151629;23;20063;-84
2023/01/17 04:16:34;;;;;;;2.65;1.50;;;;;;;4.37;77.25;97267.56;6153207;23;20071;-83
2023/01/17 04:19:01;;;;;;;1.65;1.13;;;;;;;4.36;77.90;97265.94;6128061;23;20098;-83
2023/01/17 04:21:27;;;;;;;2.63;1.50;;;;;;;4.35;78.26;97266.91;6128586;23;20029;-84
2023/01/17 04:23:54;;;;;;;1.65;1.30;;;;;;;4.37;77.87;97264.94;6178477;23;20099;-82
2023/01/17 04:26:21;;;;;;;2.97;1.10;;;;;;;4.32;78.51;97259.34;6203493;23;20031;-84
2023/01/17 04:28:48;;;;;;;3.78;1.63;;;;;;;4.33;77.93;97255.75;6178017;23;20040;-83
2023/01/17 04:31:15;;;;;;;2.17;1.33;;;;;;;4.30;78.52;97250.78;6153879;23;20024;-83
2023/01/17 04:33:48;;;;;;;3.47;1.50;;;;;;;4.24;78.42;97248.81;6153047;23;20414;-83
2023/01/17 04:36:15;;;;;;;2.50;1.60;;;;;;;4.25;77.96;97245.19;6199687;23;20457;-83
2023/01/17 04:38:41;;;;;;;6.07;2.00;;;;;;;4.20;78.53;97253.56;6127769;23;20520;-83
2023/01/17 04:41:08;;;;;;;1.13;1.00;;;;;;;4.20;78.88;97244.84;6153609;23;20016;-83
2023/01/17 04:43:35;;;;;;;3.55;1.67;;;;;;;4.20;78.23;97243.06;6153214;23;20400;-83
2023/01/17 04:46:03;;;;;;;2.55;1.50;;;;;;;4.13;78.79;97252.56;6176458;23;20079;-84
2023/01/17 04:48:30;;;;;;;1.88;1.20;;;;;;;4.05;79.37;97239.41;6128085;23;20020;-83
2023/01/17 04:51:01;;;;;;;3.22;1.40;;;;;;;3.95;79.66;97238.72;6177126;23;20023;-83
2023/01/17 04:53:28;;;;;;;5.18;1.42;;;;;;;3.92;79.59;97242.47;6126658;23;20419;-83
2023/01/17 04:55:54;;;;;;;2.20;1.35;;;;;;;3.84;79.97;97234.53;6177139;23;20082;-83
2023/01/17 04:58:21;;;;;;;5.32;1.85;;;;;;;3.94;79.60;97234.41;6177332;23;20042;-82
2023/01/17 05:00:49;;;;;;;5.30;1.70;;;;;;;3.89;79.81;97233.09;6178077;23;20020;-83
2023/01/17 05:03:17;;;;;;;4.57;1.83;;;;;;;3.89;79.62;97243.59;6151240;23;20020;-83
2023/01/17 05:05:44;;;;;;;5.07;2.00;;;;;;;3.91;79.32;97249.50;6175812;23;20496;-83
2023/01/17 05:08:14;;;;;;;4.28;2.15;;;;;;;3.84;80.23;97255.53;6127908;23;20034;-83
2023/01/17 05:10:41;;;;;;;2.97;1.83;;;;;;;3.76;79.89;97258.94;6153183;23;20028;-83
2023/01/17 05:13:08;;;;;;;3.42;1.48;;;;;;;3.77;79.81;97255.34;6177274;23;20449;-84
2023/01/17 05:15:35;;;;;;;4.65;2.67;;;;;;;3.72;80.11;97255.00;6176232;23;20025;-83
2023/01/17 05:18:06;;;;;;;3.58;1.50;;;;;;;3.72;79.74;97249.75;6177199;23;20020;-83
2023/01/17 05:20:33;;;;;;;4.28;2.90;;;;;;;3.73;79.60;97261.06;6153480;23;20024;-82
2023/01/17 05:23:00;;;;;;;5.13;2.65;;;;;;;3.73;79.29;97254.00;6176179;23;20024;-83
2023/01/17 05:25:28;;;;;;;3.70;2.58;;;;;;;3.73;79.45;97258.44;6152672;23;20025;-82
2023/01/17 05:27:56;;;;;;;4.90;2.30;;;;;;;3.66;79.62;97263.47;6127305;23;20032;-83
2023/01/17 05:30:22;;;;;;;4.05;2.50;;;;;;;3.72;79.32;97265.50;6152218;23;20078;-82
2023/01/17 05:32:51;;;;;;;6.13;2.38;;;;;;;3.66;79.69;97253.81;6175329;23;20017;-83
2023/01/17 05:35:19;;;;;;;10.43;2.20;;;;;;;3.58;79.51;97258.19;6176776;23;20017;-83
2023/01/17 05:37:47;;;;;;;6.05;2.20;;;;;;;3.65;78.96;97257.41;6127157;23;20416;-83
2023/01/17 05:40:15;;;;;;;2.70;1.95;;;;;;;3.63;79.44;97248.88;6152610;23;20024;-83
2023/01/17 05:42:46;;;;;;;4.40;2.05;;;;;;;3.60;79.41;97251.81;6176161;23;20020;-82
2023/01/17 05:45:15;;;;;;;2.95;1.88;;;;;;;3.66;78.93;97250.34;6151765;23;20020;-82
2023/01/17 05:47:43;;;;;;;3.28;2.42;;;;;;;3.65;79.17;97260.03;6176739;23;20048;-82
2023/01/17 05:50:11;;;;;;;4.88;3.10;;;;;;;3.62;79.52;97259.53;6127999;23;20025;-83
2023/01/17 05:52:38;;;;;;;5.07;2.53;;;;;;;3.66;79.61;97260.84;6126914;23;20024;-82
2023/01/17 05:55:06;;;;;;;5.00;2.30;;;;;;;3.81;78.85;97267.16;6151404;23;20032;-82
2023/01/17 05:57:33;;;;;;;5.65;2.10;;;;;;;3.68;78.95;97270.22;6151619;23;20051;-83
2023/01/17 06:00:00;;;;;;;3.50;1.90;;;;;;;3.68;79.07;97267.59;6153134;23;20016;-83
2023/01/17 06:02:30;;;;;;;4.25;1.92;;;;;;;3.63;79.78;97267.25;6176689;23;20134;-83
2023/01/17 06:04:57;;;;;;;2.70;1.73;;;;;;;3.62;79.45;97268.22;6201567;23;20388;-82
2023/01/17 06:07:23;;;;;;;3.58;1.98;;;;;;;3.61;79.50;97269.22;6175798;23;20749;-81
2023/01/17 06:09:50;;;;;;;4.82;1.95;;;;;;;3.59;79.32;97267.72;6105702;23;20024;-83
2023/01/17 06:12:20;;;;;;;3.78;1.95;;;;;;;3.57;79.49;97261.81;6054580;23;20029;-82
2023/01/17 06:14:47;;;;;;;3.42;1.70;;;;;;;3.53;79.68;97268.31;6042305;23;20156;-82
2023/01/17 06:17:14;;;;;;;5.00;2.00;;;;;;;3.57;79.27;97260.00;5994254;23;20030;-84
2023/01/17 06:19:41;;;;;;;4.15;1.70;;;;;;;3.52;79.42;97262.25;6030021;23;20109;-82
2023/01/17 06:22:07;;;;;;;5.47;2.00;;;;;;;3.44;79.76;97260.41;6079347;23;20350;-82
2023/01/17 06:24:34;;;;;;;5.88;1.67;;;;;;;3.43;79.75;97250.06;6056669;23;20478;-82
2023/01/17 06:27:01;;;;;;;4.85;1.70;;;;;;;3.38;79.81;97261.00;6056860;23;20101;-82
2023/01/17 06:29:28;;;;;;;2.75;1.63;;;;;;;3.31;79.89;97244.25;6009226;23;20034;-83
2023/01/17 06:31:54;;;;;;;6.82;1.80;;;;;;;3.30;79.70;97245.22;6058170;23;20022;-82
2023/01/17 06:34:21;;;;;;;5.10;1.55;;;;;;;3.26;79.83;97239.47;6008549;23;20022;-82
2023/01/17 06:36:48;;;;;;;3.05;1.80;;;;;;;3.22;79.47;97239.94;6056862;23;20026;-83
2023/01/17 06:39:14;;;;;;;4.30;1.45;;;;;;;3.25;78.96;97243.06;6130919;23;20013;-82
2023/01/17 06:41:41;;;;;;;3.75;2.03;;;;;;;3.27;78.81;97235.03;6151805;23;20024;-82
2023/01/17 06:44:08;;;;;;;8.23;1.73;;;;;;;3.26;78.96;97233.41;6175516;23;20032;-83
2023/01/17 06:46:35;;;;;;;5.50;2.55;;;;;;;3.28;78.87;97243.72;6174491;23;20511;-81
2023/01/17 06:49:02;;;;;;;6.07;1.70;;;;;;;3.27;78.93;97242.91;6175500;23;20044;-81
2023/01/17 06:51:29;;;;;;;4.75;1.92;;;;;;;3.22;78.72;97240.75;6150105;23;20092;-84
2023/01/17 06:53:55;;;;;;;3.30;1.77;;;;;;;3.20;79.01;97249.75;6174680;23;20633;-82
2023/01/17 06:56:22;;;;;;;4.25;1.75;;;;;;;3.13;79.23;97249.53;6136826;23;20024;-81
2023/01/17 06:58:50;;;;;;;3.47;1.73;;;;;;;3.08;79.34;97249.19;6173371;23;20506;-81
2023/01/17 07:01:17;;;;;;;7.15;2.00;;;;;;;3.08;79.63;97248.34;6159012;23;20111;-82
2023/01/17 07:03:44;;;;;;;2.75;1.50;;;;;;;3.08;79.71;97245.72;6123668;23;20024;-82
2023/01/17 07:06:11;;;;;;;7.72;2.20;;;;;;;3.02;79.51;97247.97;6174459;23;20516;-82
2023/01/17 07:08:37;;;;;;;3.35;1.52;;;;;;;3.03;79.50;97246.19;6173675;23;20025;-82
2023/01/17 07:11:09;;;;;;;3.25;1.75;;;;;;;2.98;79.48;97241.41;6150210;23;20024;-82
2023/01/17 07:13:37;;;;;;;2.85;1.60;;;;;;;2.98;79.74;97244.03;6174589;23;20666;-82
2023/01/17 07:16:05;;;;;;;4.35;1.70;;;;;;;3.04;79.56;97245.19;6149622;23;20024;-82
2023/01/17 07:18:32;;;;;;;3.97;2.10;;;;;;;3.05;79.72;97252.06;6176215;23;20083;-82
2023/01/17 07:20:59;;;;;;;7.53;1.92;;;;;;;3.08;79.67;97254.41;6148693;23;20044;-83
2023/01/17 07:23:26;;;;;;;8.70;2.45;;;;;;;2.93;79.67;97251.50;6149454;23;20093;-82
2023/01/17 07:25:57;;;;;;;6.60;2.03;;;;;;;2.90;79.59;97243.09;6175688;23;20025;-82
2023/01/17 07:28:25;;;;;;;3.50;2.35;;;;;;;3.01;79.23;97248.94;6174560;23;20163;-82
2023/01/17 07:30:53;;;;;;;4.60;2.20;;;;;;;3.00;79.24;97255.19;6129222;23;20021;-82
2023/01/17 07:33:20;;;;;;;4.20;2.35;;;;;;;2.94;79.53;97266.25;6177559;23;20336;-82
2023/01/17 07:35:46;;;;;;;3.83;2.35;;;;;;;2.87;79.47;97259.16;6128675;23;20027;-82
2023/01/17 07:38:15;;;;;;;4.40;2.75;;;;;;;2.94;79.05;97254.94;6177662;23;20016;-82
2023/01/17 07:40:43;;;;;;;5.28;2.38;;;;;;;2.98;78.92;97257.13;6128575;23;20028;-82
2023/01/17 07:43:12;;;;;;;6.28;2.72;;;;;;;2.99;79.45;97257.94;6152069;23;20322;-82
2023/01/17 07:45:45;;;;;;;9.48;3.55;;;;;;;2.91;79.97;97263.94;6153316;23;20032;-82
2023/01/17 07:48:12;;;;;;;5.63;3.10;;;;;;;3.10;79.55;97255.06;6153469;23;20025;-82
2023/01/17 07:50:39;;;;;;;7.30;3.10;;;;;;;3.13;79.50;97261.81;6128788;23;20444;-82
2023/01/17 07:53:05;;;;;;;6.53;3.50;;;;;;;3.09;80.10;97250.00;6152735;23;20057;-82
2023/01/17 07:55:32;;;;;;;7.75;3.40;;;;;;;3.10;80.83;97249.81;6152641;23;20442;-82
2023/01/17 07:57:59;;;;;;;7.68;3.90;;;;;;;3.14;81.43;97251.19;6151926;23;20344;-82
2023/01/17 08:00:28;;;;;;;7.28;2.72;;;;;;;3.16;80.87;97246.63;6127152;23;20028;-82
2023/01/17 08:02:59;;;;;;;8.48;3.65;;;;;;;3.12;80.75;97237.38;6177881;23;20024;-82
2023/01/17 08:05:27;;;;;;;8.98;3.13;;;;;;;3.18;80.53;97238.56;6151109;23;20028;-82
2023/01/17 08:07:54;;;;;;;10.35;3.70;;;;;;;3.11;80.44;97233.13;6126991;23;20027;-82
2023/01/17 08:10:21;;;;;;;7.88;3.35;;;;;;;3.25;79.95;97223.88;6175735;23;20100;-82
2023/01/17 08:12:49;;;;;;;11.50;5.03;;;;;;;3.21;79.90;97225.19;6177460;23;20452;-82
2023/01/17 08:15:16;;;;;;;10.48;4.45;;;;;;;3.21;80.15;97226.00;6150670;23;20024;-82
2023/01/17 08:17:47;;;;;;;12.90;4.65;;;;;;;3.21;80.65;97227.81;6127217;23;20408;-82
2023/01/17 08:20:15;;;;;;;9.60;4.22;;;;;;;3.22;80.47;97224.19;6151198;23;20020;-82
2023/01/17 08:22:41;;;;;;;8.80;4.35;;;;;;;3.23;80.35;97225.81;6175296;23;20135;-82
2023/01/17 08:25:08;;;;;;;7.20;3.88;;;;;;;3.21;80.06;97231.25;6176603;23;20523;-82
2023/01/17 08:27:35;;;;;;;10.55;4.35;;;;;;;3.22;80.19;97221.56;6125667;23;20017;-82
2023/01/17 08:30:02;;;;;;;10.93;4.72;;;;;;;3.21;80.33;97226.00;6176610;23;20087;-82
2023/01/17 08:32:29;;;;;;;12.25;4.72;;;;;;;3.23;79.83;97223.19;6173880;23;20013;-82
2023/01/17 08:34:56;;;;;;;9.73;4.07;;;;;;;3.30;79.22;97211.13;6126116;23;20352;-82
2023/01/17 08:37:23;;;;;;;9.68;5.43;;;;;;;3.23;79.91;97200.44;6176032;23;20020;-82
2023/01/17 08:39:50;;;;;;;9.00;4.50;;;;;;;3.21;80.01;97209.44;6126580;23;20047;-82
2023/01/17 08:42:16;;;;;;;13.23;4.88;;;;;;;3.21;80.16;97215.50;6202349;23;20020;-82
2023/01/17 08:44:43;;;;;;;10.00;4.75;;;;;;;3.13;80.87;97207.59;6126493;23;20283;-82
2023/01/17 08:47:10;;;;;;;12.77;5.78;;;;;;;3.13;81.67;97209.38;6174049;23;20340;-82
2023/01/17 08:49:36;;;;;;;10.77;4.63;;;;;;;3.10;81.83;97213.13;6176069;23;20091;-82
2023/01/17 08:52:04;;;;;;;11.10;5.82;;;;;;;3.08;81.68;97203.75;6174992;23;20020;-81
2023/01/17 08:54:32;;;;;;;8.93;4.90;;;;;;;3.14;81.52;97211.03;6127030;23;20325;-81
2023/01/17 08:57:02;;;;;;;11.43;5.15;;;;;;;3.19;80.95;97206.97;6124578;23;20021;-80
2023/01/17 08:59:28;;;;;;;12.63;5.28;;;;;;;3.17;81.36;97205.47;6174527;23;20020;-83
2023/01/17 09:01:56;;;;;;;13.00;6.05;;;;;;;3.15;81.50;97218.72;6151498;23;20024;-81
2023/01/17 09:04:24;;;;;;;13.15;6.47;;;;;;;3.25;80.96;97224.69;6126654;23;20099;-81
2023/01/17 09:06:50;;;;;;;12.00;6.60;;;;;;;3.12;81.61;97216.41;6150159;23;20013;-81
2023/01/17 09:09:17;;;;;;;13.25;6.72;;;;;;;3.11;82.46;97227.91;6150339;23;20028;-81
2023/01/17 09:11:44;;;;;;;10.38;5.55;;;;;;;3.14;82.33;97226.75;6125876;23;20025;-81
2023/01/17 09:14:11;;;;;;;12.52;6.40;;;;;;;3.17;82.24;97224.66;6123672;23;20017;-81
2023/01/17 09:16:38;;;;;;;11.40;5.45;;;;;;;3.23;81.67;97231.91;6150155;23;20048;-82
2023/01/17 09:19:05;;;;;;;11.23;5.35;;;;;;;3.29;81.17;97230.47;6125163;23;20107;-82
2023/01/17 09:21:32;;;;;;;11.82;6.00;;;;;;;3.25;81.12;97229.94;6149127;23;20026;-82
2023/01/17 09:23:59;;;;;;;10.43;6.18;;;;;;;3.24;81.58;97230.94;6174227;23;20032;-82
2023/01/17 09:26:28;;;;;;;13.15;6.07;;;;;;;3.27;81.96;97235.03;6149782;23;20344;-81
2023/01/17 09:28:55;;;;;;;15.98;5.82;;;;;;;3.28;82.38;97239.31;6122780;23;20035;-81
2023/01/17 09:31:23;;;;;;;13.65;6.18;;;;;;;3.34;81.77;97241.31;6149993;23;20032;-82
2023/01/17 09:33:50;;;;;;;9.23;5.70;;;;;;;3.38;81.38;97241.84;6174068;23;20044;-81
2023/01/17 09:36:17;;;;;;;10.02;6.60;;;;;;;3.37;81.33;97237.56;6175696;23;20689;-81
2023/01/17 09:38:44;;;;;;;9.82;5.75;;;;;;;3.38;81.47;97240.03;6149445;23;20029;-81
2023/01/17 09:41:20;;;;;;;12.18;6.13;;;;;;;3.35;82.03;97248.19;6151806;23;20537;-82
2023/01/17 09:44:16;;;;;;;10.45;5.63;;;;;;;3.34;82.96;97254.44;6173633;23;20091;-82
2023/01/17 09:46:45;;;;;;;13.25;6.63;;;;;;;3.46;82.33;97249.75;6151117;23;20029;-81
2023/01/17 09:49:34;;;;;;;12.20;7.18;;;;;;;3.43;82.59;97247.44;6151098;23;20457;-81
2023/01/17 09:52:02;;;;;;;15.82;8.13;;;;;;;3.52;82.19;97249.16;6103858;23;20365;-80
2023/01/17 09:54:40;;;;;;;17.75;8.45;;;;;;;3.59;81.67;97252.81;6175020;23;20078;-81
2023/01/17 09:57:53;;;;;;;15.57;8.32;;;;;;;3.50;82.76;97251.09;6148195;23;20083;-81
2023/01/17 10:00:38;;;;;;;17.17;7.90;;;;;;;3.56;81.51;97261.00;6037724;23;20040;-82
2023/01/17 10:03:38;;;;;;;10.10;5.07;;;;;;;3.54;81.50;97252.44;6123712;23;20506;-81
2023/01/17 10:06:16;;;;;;;12.35;5.50;;;;;;;3.59;81.37;97247.56;6168253;23;21552;-81
2023/01/17 10:08:49;;;;;;;13.73;6.47;;;;;;;3.61;81.39;97247.38;6125435;23;20028;-81
2023/01/17 10:11:28;;;;;;;14.27;6.13;;;;;;;3.57;81.66;97244.25;6174589;23;20029;-82
2023/01/17 10:14:31;;;;;;;11.48;5.28;;;;;;;3.62;81.66;97244.63;6148896;23;20512;-82
2023/01/17 10:17:07;;;;;;;11.18;5.68;;;;;;;3.68;80.71;97236.09;6045090;23;20449;-82
2023/01/17 10:20:03;;;;;;;17.48;6.50;;;;;;;3.63;80.36;97225.25;6174781;23;20028;-82
2023/01/17 10:22:29;;;;;;;12.68;6.07;;;;;;;3.70;80.76;97228.91;6100699;23;20078;-82
2023/01/17 10:25:32;;;;;;;10.50;6.60;;;;;;;3.65;81.08;97223.31;6195556;23;20024;-81
2023/01/17 10:28:03;;;;;;;13.93;7.00;;;;;;;3.71;81.03;97216.59;6076706;23;20020;-81
2023/01/17 10:30:59;;;;;;;14.10;6.85;;;;;;;3.75;81.45;97228.44;6149426;23;20413;-81
2023/01/17 10:33:29;;;;;;;10.07;4.72;;;;;;;3.74;80.49;97215.47;6151819;23;20016;-81
2023/01/17 10:35:58;;;;;;;12.38;5.38;;;;;;;3.77;80.91;97216.00;6125079;23;20024;-82
2023/01/17 10:38:29;;;;;;;9.63;4.70;;;;;;;3.77;80.11;97212.53;6172994;23;20039;-81
2023/01/17 10:40:58;;;;;;;8.85;4.95;;;;;;;3.79;79.64;97213.19;6136085;23;20344;-81
2023/01/17 10:43:38;;;;;;;8.48;4.57;;;;;;;3.79;79.71;97200.91;6175093;23;20091;-81
2023/01/17 10:46:11;;;;;;;8.57;4.93;;;;;;;3.84;79.99;97205.66;6172890;23;20362;-81
2023/01/17 10:48:44;;;;;;;8.93;4.75;;;;;;;3.79;80.40;97203.53;6124727;23;20353;-81
2023/01/17 10:51:34;;;;;;;10.65;5.38;;;;;;;3.80;80.03;97199.09;6123809;23;20394;-81
2023/01/17 10:54:11;;;;;;;10.05;4.70;;;;;;;3.84;79.88;97203.88;6105141;23;20028;-83
2023/01/17 10:56:39;;;;;;;11.63;5.78;;;;;;;3.86;79.98;97191.41;6196389;23;20039;-81
2023/01/17 10:59:17;;;;;;;11.10;4.78;;;;;;;3.89;79.99;97185.84;6150305;23;20039;-81
2023/01/17 11:01:44;;;;;;;8.82;5.40;;;;;;;3.92;80.27;97184.72;6172905;23;20033;-82
2023/01/17 11:04:20;;;;;;;11.93;5.80;;;;;;;3.90;80.00;97187.47;6148374;23;20352;-80
2023/01/17 11:07:19;;;;;;;12.50;6.70;;;;;;;3.92;80.35;97175.03;6149588;23;20028;-81
2023/01/17 11:09:51;;;;;;;13.95;5.47;;;;;;;4.03;80.02;97171.28;6146495;23;20016;-81
2023/01/17 11:12:28;;;;;;;11.85;6.30;;;;;;;4.09;78.86;97169.81;6152992;23;20032;-82
2023/01/17 11:15:00;;;;;;;15.88;6.35;;;;;;;4.03;79.35;97154.72;6151886;23;20073;-82
2023/01/17 11:17:28;;;;;;;11.23;6.43;;;;;;;4.06;79.33;97157.00;6149522;23;20021;-81
2023/01/17 11:20:18;;;;;;;10.98;5.90;;;;;;;4.01;80.15;97156.66;6153904;23;20047;-82
2023/01/17 11:23:01;;;;;;;12.15;6.68;;;;;;;4.06;79.88;97155.19;6109561;23;20055;-80
2023/01/17 11:25:31;;;;;;;16.77;7.97;;;;;;;4.09;79.78;97157.50;6148141;23;20028;-79
2023/01/17 11:28:24;;;;;;;12.85;7.18;;;;;;;4.03;80.57;97149.47;6177817;23;20020;-80
2023/01/17 11:30:54;;;;;;;14.07;8.38;;;;;;;4.10;80.52;97146.03;6078374;23;20099;-80
2023/01/17 11:33:52;;;;;;;15.30;7.32;;;;;;;4.11;80.53;97138.97;6151850;23;20378;-79
2023/01/17 11:36:27;;;;;;;11.10;5.95;;;;;;;4.21;80.46;97133.56;6154457;23;20027;-79
2023/01/17 11:38:57;;;;;;;10.88;5.78;;;;;;;4.33;80.20;97127.03;6128105;23;20031;-79
2023/01/17 11:41:26;;;;;;;11.73;6.47;;;;;;;4.29;80.90;97126.50;6151195;23;20349;-79
2023/01/17 11:43:56;;;;;;;14.07;6.80;;;;;;;4.31;80.52;97126.34;6177417;23;20082;-79
2023/01/17 11:46:23;;;;;;;9.00;5.63;;;;;;;4.25;80.86;97125.22;6177469;23;20044;-80
2023/01/17 11:48:58;;;;;;;13.02;6.55;;;;;;;4.38;80.29;97110.78;6177243;23;20027;-80
2023/01/17 11:51:29;;;;;;;8.07;4.85;;;;;;;4.43;80.19;97104.03;6127087;23;20026;-80
2023/01/17 11:54:07;;;;;;;10.27;5.85;;;;;;;4.39;78.81;97102.72;6126797;23;20392;-79
2023/01/17 11:56:35;;;;;;;12.15;5.35;;;;;;;4.43;79.29;97101.41;6224224;22;20353;-79
2023/01/17 11:59:20;;;;;;;9.85;5.00;;;;;;;4.39;78.88;97100.09;6126801;23;20029;-80
2023/01/17 12:01:56;;;;;;;8.25;4.50;;;;;;;4.45;78.55;97098.59;6105256;23;20028;-80
2023/01/17 12:04:30;;;;;;;9.55;4.57;;;;;;;4.46;78.02;97093.19;6175382;23;20028;-80
2023/01/17 12:07:18;;;;;;;9.75;4.60;;;;;;;4.36;75.91;97092.53;6126540;23;20021;-79
2023/01/17 12:09:47;;;;;;;5.43;2.90;;;;;;;4.47;76.33;97081.69;6153381;23;20028;-79
2023/01/17 12:15:54;;;;;;;6.82;2.88;;;;;;;4.52;71.41;97066.25;6084490;23;20043;-80
2023/01/17 12:18:31;;;;;;;6.70;2.90;;;;;;;4.61;72.61;97061.81;6173955;23;20020;-80
2023/01/17 12:21:09;;;;;;;5.22;2.60;;;;;;;4.52;71.77;97054.91;6126278;23;20016;-79
2023/01/17 12:23:50;;;;;;;6.35;3.30;;;;;;;4.45;71.13;97060.03;6198387;23;20112;-79
2023/01/17 12:26:35;;;;;;;6.47;3.03;;;;;;;4.42;72.03;97046.41;6147812;23;20017;-80
2023/01/17 12:29:35;;;;;;;7.72;3.42;;;;;;;4.42;72.34;97044.56;6152758;23;20448;-79
2023/01/17 12:32:11;;;;;;;8.10;4.07;;;;;;;4.46;72.48;97027.50;6125053;23;20099;-79
2023/01/17 12:34:45;;;;;;;4.85;2.40;;;;;;;4.43;72.86;97016.53;6125682;23;20374;-80
2023/01/17 12:37:23;;;;;;;5.35;3.13;;;;;;;4.52;72.22;97023.38;6140837;23;20040;-80
2023/01/17 12:39:56;;;;;;;5.20;2.80;;;;;;;4.46;71.50;97022.25;6173439;23;20495;-79
2023/01/17 12:42:32;;;;;;;6.05;2.83;;;;;;;4.44;71.52;97032.09;6151779;23;20745;-79
2023/01/17 12:45:06;;;;;;;5.45;2.80;;;;;;;4.57;72.89;97045.53;6174378;23;20105;-79
2023/01/17 12:47:37;;;;;;;9.48;2.97;;;;;;;4.61;72.99;97043.44;6176840;23;20017;-80
2023/01/17 12:50:14;;;;;;;5.20;2.30;;;;;;;4.55;71.75;97031.78;6151739;23;20539;-80
2023/01/17 12:52:43;;;;;;;6.95;2.88;;;;;;;4.53;71.87;97036.38;6174331;23;20032;-79
2023/01/17 12:55:21;;;;;;;7.28;2.50;;;;;;;4.49;71.00;97029.78;6175500;23;20537;-79
2023/01/17 12:57:55;;;;;;;6.95;2.53;;;;;;;4.52;71.85;97018.13;6174675;23;20102;-80
2023/01/17 13:00:25;;;;;;;4.38;2.35;;;;;;;4.53;71.35;97004.84;6149462;23;20779;-80
2023/01/17 13:02:57;;;;;;;4.45;2.28;;;;;;;4.52;72.28;96997.94;6125721;23;20023;-80
2023/01/17 13:05:31;;;;;;;5.57;2.63;;;;;;;4.48;71.45;96998.44;6152299;23;20044;-80
2023/01/17 13:08:05;;;;;;;9.85;2.42;;;;;;;4.44;72.19;96999.75;6150610;23;20390;-79
2023/01/17 13:10:38;;;;;;;8.40;3.10;;;;;;;4.47;71.72;96994.97;6175216;23;20040;-80
2023/01/17 13:13:18;;;;;;;5.22;2.20;;;;;;;4.50;70.81;96992.03;6150522;23;20480;-79
2023/01/17 13:15:48;;;;;;;6.88;2.35;;;;;;;4.48;71.08;96986.13;6174830;23;20089;-79
2023/01/17 13:18:21;;;;;;;19.25;3.20;;;;;;;4.52;70.32;96973.47;6125903;23;20020;-80
2023/01/17 13:21:04;;;;;;;5.03;2.08;;;;;;;4.48;68.87;96970.38;6176185;23;20097;-81